Time,TemperatureF,DewpointF,PressureIn,WindDirection,WindDirectionDegrees,WindSpeedMPH,WindSpeedGustMPH,Humidity,HourlyPrecipIn,Conditions,Clouds,dailyrainin,SolarRadiationWatts/m^2,SoftwareType,DateUTC
2013-10-07 00:00:00,58.6,56.6,30.10,ENE,78,0.0,8.0,93,0.00,,---,0.02,0.00,VWS V14.01,2013-10-07 04:00:00,
2013-10-07 00:01:00,58.3,56.9,30.08,ESE,112,0.0,7.0,95,0.00,,---,0.00,0.00,VWS V14.01,2013-10-07 04:01:00,
2013-10-07 00:06:00,58.3,56.9,30.08,SE,125,2.0,7.0,95,0.00,,---,0.00,0.00,VWS V14.01,2013-10-07 04:06:00,
2013-10-07 00:11:00,58.4,57.0,30.08,North,5,3.0,8.0,95,0.00,,---,0.00,0.00,VWS V14.01,2013-10-07 04:11:00,
2013-10-07 00:16:00,58.4,57.0,30.09,ESE,113,4.0,8.0,95,0.00,,---,0.00,0.00,VWS V14.01,2013-10-07 04:16:00,
2013-10-07 00:21:00,58.5,57.1,30.08,ESE,121,3.0,8.0,95,0.00,,---,0.00,0.00,VWS V14.01,2013-10-07 04:21:00,
2013-10-07 00:26:00,58.6,57.2,30.08,ESE,113,0.0,8.0,95,0.00,,---,0.00,0.00,VWS V14.01,2013-10-07 04:26:00,
2013-10-07 00:30:00,58.2,56.5,30.09,East,90,6.0,10.0,94,0.00,,---,0.02,0.00,VWS V14.01,2013-10-07 04:30:00,
2013-10-07 00:31:00,58.7,57.3,30.08,ESE,116,7.0,7.0,95,0.00,,---,0.00,0.00,VWS V14.01,2013-10-07 04:31:00,
2013-10-07 00:36:00,58.7,57.3,30.08,ESE,111,0.0,7.0,95,0.00,,---,0.00,0.00,VWS V14.01,2013-10-07 04:36:00,
2013-10-07 00:41:00,58.7,57.3,30.08,SE,130,3.0,7.0,95,0.00,,---,0.00,0.00,VWS V14.01,2013-10-07 04:41:00,
2013-10-07 00:46:00,58.8,57.4,30.08,ENE,67,0.0,7.0,95,0.00,,---,0.00,0.00,VWS V14.01,2013-10-07 04:46:00,
2013-10-07 00:51:00,58.7,57.3,30.08,SE,142,6.0,8.0,95,0.00,,---,0.00,0.00,VWS V14.01,2013-10-07 04:51:00,
2013-10-07 00:56:00,58.7,57.3,30.08,ENE,70,2.0,8.0,95,0.00,,---,0.00,0.00,VWS V14.01,2013-10-07 04:56:00,
2013-10-07 01:00:00,58.2,56.8,30.08,ENE,67,7.0,11.0,95,0.00,,---,0.00,0.00,VWS V14.01,2013-10-07 05:00:00,
2013-10-07 01:01:00,58.7,57.3,30.07,SSE,155,3.0,3.0,95,0.00,,---,0.00,0.00,VWS V14.01,2013-10-07 05:01:00,
2013-10-07 01:06:00,58.7,57.3,30.07,East,95,0.0,5.0,95,0.00,,---,0.00,0.00,VWS V14.01,2013-10-07 05:06:00,
2013-10-07 01:11:00,58.7,57.3,30.07,ESE,114,0.0,5.0,95,0.00,,---,0.00,0.00,VWS V14.01,2013-10-07 05:11:00,
2013-10-07 01:16:00,58.7,57.3,30.07,East,82,2.0,6.0,95,0.00,,---,0.00,0.00,VWS V14.01,2013-10-07 05:16:00,
2013-10-07 01:21:00,58.7,57.3,30.07,NE,46,0.0,6.0,95,0.00,,---,0.00,0.00,VWS V14.01,2013-10-07 05:21:00,
2013-10-07 01:26:00,58.7,57.3,30.07,ENE,59,0.0,6.0,95,0.00,,---,0.00,0.00,VWS V14.01,2013-10-07 05:26:00,
2013-10-07 01:30:00,58.6,57.2,30.08,ESE,106,0.0,8.0,95,0.00,,---,0.00,0.00,VWS V14.01,2013-10-07 05:30:00,
2013-10-07 01:31:00,58.7,57.3,30.07,ESE,108,0.0,5.0,95,0.00,,---,0.00,0.00,VWS V14.01,2013-10-07 05:31:00,
2013-10-07 01:36:00,58.7,57.6,30.07,ENE,74,3.0,5.0,96,0.00,,---,0.00,0.00,VWS V14.01,2013-10-07 05:36:00,
2013-10-07 01:41:00,58.8,57.7,30.06,ENE,61,1.0,5.0,96,0.00,,---,0.00,0.00,VWS V14.01,2013-10-07 05:41:00,
2013-10-07 01:46:00,58.8,57.7,30.06,ENE,61,0.0,5.0,96,0.00,,---,0.00,0.00,VWS V14.01,2013-10-07 05:46:00,
2013-10-07 01:51:00,58.8,57.7,30.06,East,98,3.0,5.0,96,0.00,,---,0.00,0.00,VWS V14.01,2013-10-07 05:51:00,
2013-10-07 01:56:00,58.9,57.8,30.05,ESE,114,0.0,5.0,96,0.00,,---,0.00,0.00,VWS V14.01,2013-10-07 05:56:00,
2013-10-07 02:00:00,58.7,57.3,30.07,East,81,3.0,8.0,95,0.00,,---,0.00,0.00,VWS V14.01,2013-10-07 06:00:00,
2013-10-07 02:01:00,59.0,57.9,30.05,SE,125,0.0,1.0,96,0.00,,---,0.00,0.00,VWS V14.01,2013-10-07 06:01:00,
2013-10-07 02:06:00,59.1,58.0,30.05,East,96,3.0,6.0,96,0.00,,---,0.00,0.00,VWS V14.01,2013-10-07 06:06:00,
2013-10-07 02:11:00,59.3,58.2,30.05,East,96,0.0,6.0,96,0.00,,---,0.00,0.00,VWS V14.01,2013-10-07 06:11:00,
2013-10-07 02:16:00,59.4,58.3,30.05,South,181,3.0,6.0,96,0.00,,---,0.00,0.00,VWS V14.01,2013-10-07 06:16:00,
2013-10-07 02:21:00,59.5,58.4,30.05,SE,132,0.0,6.0,96,0.00,,---,0.00,0.00,VWS V14.01,2013-10-07 06:21:00,
2013-10-07 02:26:00,59.4,58.3,30.04,SE,132,0.0,6.0,96,0.00,,---,0.00,0.00,VWS V14.01,2013-10-07 06:26:00,
2013-10-07 02:30:00,58.7,57.3,30.07,ENE,59,0.0,6.0,95,0.00,,---,0.00,0.00,VWS V14.01,2013-10-07 06:30:00,
2013-10-07 02:31:00,59.5,58.4,30.04,NNW,331,0.0,0.0,96,0.00,,---,0.00,0.00,VWS V14.01,2013-10-07 06:31:00,
2013-10-07 02:36:00,59.6,58.5,30.04,NNW,331,0.0,0.0,96,0.00,,---,0.00,0.00,VWS V14.01,2013-10-07 06:36:00,
2013-10-07 02:41:00,59.9,58.8,30.04,NNW,333,0.0,1.0,96,0.00,,---,0.00,0.00,VWS V14.01,2013-10-07 06:41:00,
2013-10-07 02:46:00,60.1,59.2,30.04,NNW,333,0.0,3.0,97,0.00,,---,0.00,0.00,VWS V14.01,2013-10-07 06:46:00,
2013-10-07 02:51:00,60.2,59.1,30.04,NNW,333,0.0,3.0,96,0.00,,---,0.00,0.00,VWS V14.01,2013-10-07 06:51:00,
2013-10-07 02:56:00,60.5,59.7,30.03,NNW,333,0.0,3.0,97,0.00,,---,0.00,0.00,VWS V14.01,2013-10-07 06:56:00,
2013-10-07 03:00:00,58.9,57.8,30.05,SE,125,1.0,5.0,96,0.00,,---,0.00,0.00,VWS V14.01,2013-10-07 07:00:00,
2013-10-07 03:01:00,61.1,60.2,30.03,South,184,0.0,0.0,97,0.00,,---,0.00,0.00,VWS V14.01,2013-10-07 07:01:00,
2013-10-07 03:06:00,61.8,60.9,30.03,SE,126,0.0,4.0,97,0.00,,---,0.00,0.00,VWS V14.01,2013-10-07 07:06:00,
2013-10-07 03:11:00,62.1,61.2,30.03,SE,128,0.0,4.0,97,0.00,,---,0.00,0.00,VWS V14.01,2013-10-07 07:11:00,
2013-10-07 03:16:00,62.4,61.2,30.03,ESE,114,0.0,6.0,96,0.00,,---,0.00,0.00,VWS V14.01,2013-10-07 07:16:00,
2013-10-07 03:21:00,62.7,61.2,30.03,ENE,76,2.0,6.0,95,0.00,,---,0.00,0.00,VWS V14.01,2013-10-07 07:21:00,
2013-10-07 03:26:00,62.8,61.3,30.02,SSE,158,0.0,6.0,95,0.00,,---,0.00,0.00,VWS V14.01,2013-10-07 07:26:00,
2013-10-07 03:30:00,59.5,58.4,30.04,NNW,331,0.0,6.0,96,0.00,,---,0.00,0.00,VWS V14.01,2013-10-07 07:30:00,
2013-10-07 03:31:00,62.9,61.2,30.02,ESE,122,0.0,2.0,94,0.00,,---,0.00,0.00,VWS V14.01,2013-10-07 07:31:00,
2013-10-07 03:36:00,62.5,60.8,30.02,NE,34,0.0,4.0,94,0.00,,---,0.00,0.00,VWS V14.01,2013-10-07 07:36:00,
2013-10-07 03:41:00,62.2,60.5,30.02,NE,34,0.0,4.0,94,0.00,,---,0.00,0.00,VWS V14.01,2013-10-07 07:41:00,
2013-10-07 03:46:00,61.9,60.2,30.02,NE,34,0.0,4.0,94,0.00,,---,0.00,0.00,VWS V14.01,2013-10-07 07:46:00,
2013-10-07 03:51:00,61.7,60.0,30.02,NE,34,0.0,4.0,94,0.00,,---,0.00,0.00,VWS V14.01,2013-10-07 07:51:00,
2013-10-07 03:56:00,61.4,59.7,30.01,NE,34,0.0,4.0,94,0.00,,---,0.00,0.00,VWS V14.01,2013-10-07 07:56:00,
2013-10-07 04:00:00,61.0,60.2,30.04,South,184,0.0,7.0,97,0.00,,---,0.00,0.00,VWS V14.01,2013-10-07 08:00:00,
2013-10-07 04:01:00,61.2,59.5,30.02,NE,34,0.0,0.0,94,0.00,,---,0.00,0.00,VWS V14.01,2013-10-07 08:01:00,
2013-10-07 04:06:00,61.1,59.7,30.01,NE,34,0.0,0.0,95,0.00,,---,0.00,0.00,VWS V14.01,2013-10-07 08:06:00,
2013-10-07 04:11:00,61.1,59.7,30.01,NE,34,0.0,2.0,95,0.00,,---,0.00,0.00,VWS V14.01,2013-10-07 08:11:00,
2013-10-07 04:16:00,60.9,59.5,30.01,East,86,0.0,3.0,95,0.00,,---,0.00,0.00,VWS V14.01,2013-10-07 08:16:00,
2013-10-07 04:21:00,60.8,59.4,30.01,East,86,0.0,3.0,95,0.00,,---,0.00,0.00,VWS V14.01,2013-10-07 08:21:00,
2013-10-07 04:26:00,60.8,59.4,30.00,East,86,0.0,3.0,95,0.00,,---,0.00,0.00,VWS V14.01,2013-10-07 08:26:00,
2013-10-07 04:30:00,62.9,61.5,30.02,ENE,70,2.0,6.0,95,0.00,,---,0.00,0.00,VWS V14.01,2013-10-07 08:30:00,
2013-10-07 04:31:00,60.8,59.4,30.00,East,86,2.0,2.0,95,0.00,,---,0.00,0.00,VWS V14.01,2013-10-07 08:31:00,
2013-10-07 04:36:00,60.9,59.5,30.00,East,86,0.0,2.0,95,0.00,,---,0.00,0.00,VWS V14.01,2013-10-07 08:36:00,
2013-10-07 04:41:00,60.9,59.5,30.00,East,86,0.0,2.0,95,0.00,,---,0.00,0.00,VWS V14.01,2013-10-07 08:41:00,
2013-10-07 04:46:00,61.0,59.9,30.00,East,86,0.0,2.0,96,0.00,,---,0.00,0.00,VWS V14.01,2013-10-07 08:46:00,
2013-10-07 04:51:00,61.1,60.0,30.00,East,86,0.0,2.0,96,0.00,,---,0.00,0.00,VWS V14.01,2013-10-07 08:51:00,
2013-10-07 04:56:00,61.3,60.2,30.00,East,86,0.0,2.0,96,0.00,,---,0.00,0.00,VWS V14.01,2013-10-07 08:56:00,
2013-10-07 05:00:00,61.3,59.6,30.02,NE,34,0.0,4.0,94,0.00,,---,0.00,0.00,VWS V14.01,2013-10-07 09:00:00,
2013-10-07 05:01:00,61.4,60.2,30.00,East,86,0.0,1.0,96,0.00,,---,0.00,0.00,VWS V14.01,2013-10-07 09:01:00,
2013-10-07 05:06:00,61.6,60.5,29.99,East,86,0.0,1.0,96,0.00,,---,0.00,0.00,VWS V14.01,2013-10-07 09:06:00,
2013-10-07 05:11:00,61.7,60.5,29.99,East,86,0.0,1.0,96,0.00,,---,0.00,0.00,VWS V14.01,2013-10-07 09:11:00,
2013-10-07 05:16:00,61.9,60.5,29.99,East,86,0.0,1.0,95,0.00,,---,0.00,0.00,VWS V14.01,2013-10-07 09:16:00,
2013-10-07 05:21:00,61.9,60.5,29.99,East,86,0.0,1.0,95,0.00,,---,0.00,0.00,VWS V14.01,2013-10-07 09:21:00,
2013-10-07 05:26:00,61.9,60.5,29.99,NNE,22,0.0,3.0,95,0.00,,---,0.00,0.00,VWS V14.01,2013-10-07 09:26:00,
2013-10-07 05:30:00,60.8,59.4,30.00,East,86,0.0,3.0,95,0.00,,---,0.00,0.00,VWS V14.01,2013-10-07 09:30:00,
2013-10-07 05:31:00,62.0,60.6,29.99,NNE,32,0.0,0.0,95,0.00,,---,0.00,0.00,VWS V14.01,2013-10-07 09:31:00,
2013-10-07 05:36:00,62.0,60.6,29.99,NNE,32,0.0,2.0,95,0.00,,---,0.00,0.00,VWS V14.01,2013-10-07 09:36:00,
2013-10-07 05:41:00,62.2,60.8,29.98,NNE,27,1.0,3.0,95,0.00,,---,0.00,0.00,VWS V14.01,2013-10-07 09:41:00,
2013-10-07 05:46:00,62.2,60.8,29.98,NNE,27,0.0,3.0,95,0.00,,---,0.00,0.00,VWS V14.01,2013-10-07 09:46:00,
2013-10-07 05:51:00,62.3,60.8,29.98,NNE,27,0.0,3.0,95,0.00,,---,0.00,0.00,VWS V14.01,2013-10-07 09:51:00,
2013-10-07 05:56:00,62.3,60.8,29.98,NNE,27,0.0,3.0,95,0.00,,---,0.00,0.00,VWS V14.01,2013-10-07 09:56:00,
2013-10-07 06:00:00,61.4,60.2,30.00,East,86,0.0,2.0,96,0.00,,---,0.00,0.00,VWS V14.01,2013-10-07 10:00:00,
2013-10-07 06:01:00,62.4,61.2,29.98,NNE,27,0.0,0.0,96,0.00,,---,0.00,0.00,VWS V14.01,2013-10-07 10:01:00,
2013-10-07 06:06:00,62.6,61.5,29.98,NNE,27,0.0,0.0,96,0.00,,---,0.00,0.00,VWS V14.01,2013-10-07 10:06:00,
2013-10-07 06:11:00,63.2,62.3,29.97,SE,132,0.0,7.0,97,0.00,,---,0.00,0.00,VWS V14.01,2013-10-07 10:11:00,
2013-10-07 06:16:00,64.1,63.2,29.97,ESE,121,2.0,7.0,97,0.00,,---,0.00,0.00,VWS V14.01,2013-10-07 10:16:00,
2013-10-07 06:21:00,64.5,63.3,29.97,SE,134,0.0,7.0,96,0.00,,---,0.00,0.00,VWS V14.01,2013-10-07 10:21:00,
2013-10-07 06:26:00,64.8,63.3,29.97,SSE,167,0.0,7.0,95,0.00,,---,0.00,0.00,VWS V14.01,2013-10-07 10:26:00,
2013-10-07 06:30:00,62.0,60.6,29.99,NNE,32,0.0,3.0,95,0.00,,---,0.00,0.00,VWS V14.01,2013-10-07 10:30:00,
2013-10-07 06:31:00,65.0,63.5,29.97,ESE,105,0.0,0.0,95,0.01,,---,0.01,0.00,VWS V14.01,2013-10-07 10:31:00,
2013-10-07 06:36:00,65.1,63.6,29.97,ESE,107,0.0,1.0,95,0.01,,---,0.01,0.00,VWS V14.01,2013-10-07 10:36:00,
2013-10-07 06:41:00,65.2,63.7,29.97,ESE,107,0.0,0.0,95,0.01,,---,0.01,0.00,VWS V14.01,2013-10-07 10:41:00,
2013-10-07 06:46:00,65.1,63.6,29.97,ESE,107,0.0,2.0,95,0.01,,---,0.01,0.00,VWS V14.01,2013-10-07 10:46:00,
2013-10-07 06:51:00,65.2,63.7,29.97,ESE,107,0.0,2.0,95,0.01,,---,0.01,0.00,VWS V14.01,2013-10-07 10:51:00,
2013-10-07 06:56:00,65.2,63.7,29.97,ESE,107,0.0,3.0,95,0.01,,---,0.01,0.00,VWS V14.01,2013-10-07 10:56:00,
2013-10-07 07:00:00,62.4,61.2,29.98,NNE,27,0.0,3.0,96,0.00,,---,0.00,0.00,VWS V14.01,2013-10-07 11:00:00,
2013-10-07 07:01:00,65.3,63.8,29.97,ESE,107,0.0,0.0,95,0.01,,---,0.01,0.00,VWS V14.01,2013-10-07 11:01:00,
2013-10-07 07:06:00,65.5,64.0,29.97,ESE,107,0.0,0.0,95,0.01,,---,0.01,0.00,VWS V14.01,2013-10-07 11:06:00,
2013-10-07 07:11:00,65.6,64.1,29.97,SE,127,0.0,3.0,95,0.01,,---,0.01,7.00,VWS V14.01,2013-10-07 11:11:00,
2013-10-07 07:16:00,65.7,64.2,29.97,ENE,65,0.0,7.0,95,0.01,,---,0.01,7.00,VWS V14.01,2013-10-07 11:16:00,
2013-10-07 07:21:00,65.7,64.2,29.96,NNE,15,0.0,7.0,95,0.01,,---,0.01,7.00,VWS V14.01,2013-10-07 11:21:00,
2013-10-07 07:26:00,65.7,63.9,29.97,East,101,1.0,7.0,94,0.01,,---,0.01,7.00,VWS V14.01,2013-10-07 11:26:00,
2013-10-07 07:30:00,64.9,63.4,29.97,SSE,167,0.0,7.0,95,0.00,,---,0.00,0.00,VWS V14.01,2013-10-07 11:30:00,
2013-10-07 07:31:00,65.8,64.0,29.97,WSW,237,0.0,3.0,94,0.01,,---,0.01,5.00,VWS V14.01,2013-10-07 11:31:00,
2013-10-07 07:36:00,65.8,64.0,29.97,SSE,157,0.0,4.0,94,0.01,,---,0.01,12.00,VWS V14.01,2013-10-07 11:36:00,
2013-10-07 07:41:00,65.9,64.1,29.97,SW,214,0.0,4.0,94,0.01,,---,0.01,12.00,VWS V14.01,2013-10-07 11:41:00,
2013-10-07 07:46:00,66.1,64.3,29.97,East,81,0.0,4.0,94,0.01,,---,0.01,19.00,VWS V14.01,2013-10-07 11:46:00,
2013-10-07 07:51:00,66.3,64.5,29.96,ENE,77,0.0,4.0,94,0.01,,---,0.01,12.00,VWS V14.01,2013-10-07 11:51:00,
2013-10-07 07:56:00,66.7,64.9,29.96,SW,218,0.0,5.0,94,0.01,,---,0.01,23.00,VWS V14.01,2013-10-07 11:56:00,
2013-10-07 08:00:00,65.3,63.8,29.97,ESE,107,0.0,3.0,95,0.01,,---,0.01,0.00,VWS V14.01,2013-10-07 12:00:00,
2013-10-07 08:01:00,67.0,64.9,29.96,NE,37,0.0,0.0,93,0.00,,---,0.01,42.00,VWS V14.01,2013-10-07 12:01:00,
2013-10-07 08:06:00,67.2,65.1,29.96,SE,139,0.0,9.0,93,0.00,,---,0.01,26.00,VWS V14.01,2013-10-07 12:06:00,
2013-10-07 08:11:00,67.4,65.0,29.96,WNW,300,0.0,9.0,92,0.00,,---,0.01,33.00,VWS V14.01,2013-10-07 12:11:00,
2013-10-07 08:16:00,67.5,65.1,29.96,NE,40,0.0,9.0,92,0.00,,---,0.01,33.00,VWS V14.01,2013-10-07 12:16:00,
2013-10-07 08:21:00,67.5,65.1,29.96,North,360,3.0,9.0,92,0.00,,---,0.01,37.00,VWS V14.01,2013-10-07 12:21:00,
2013-10-07 08:26:00,67.6,64.9,29.95,SSE,153,4.0,9.0,91,0.00,,---,0.01,91.00,VWS V14.01,2013-10-07 12:26:00,
2013-10-07 08:30:00,65.7,63.9,29.97,SE,124,3.0,7.0,94,0.01,,---,0.01,9.00,VWS V14.01,2013-10-07 12:30:00,
2013-10-07 08:31:00,67.9,65.2,29.95,East,81,0.0,3.0,91,0.00,,---,0.01,218.00,VWS V14.01,2013-10-07 12:31:00,
2013-10-07 08:36:00,68.4,65.4,29.95,WSW,251,0.0,5.0,90,0.00,,---,0.01,186.00,VWS V14.01,2013-10-07 12:36:00,
2013-10-07 08:41:00,68.8,65.4,29.95,NW,315,2.0,5.0,89,0.00,,---,0.01,260.00,VWS V14.01,2013-10-07 12:41:00,
2013-10-07 08:46:00,69.5,65.8,29.95,SSW,198,0.0,5.0,88,0.00,,---,0.01,274.00,VWS V14.01,2013-10-07 12:46:00,
2013-10-07 08:51:00,70.0,66.3,29.94,NW,323,0.0,6.0,88,0.00,,---,0.01,281.00,VWS V14.01,2013-10-07 12:51:00,
2013-10-07 08:56:00,70.4,66.3,29.94,WNW,303,0.0,6.0,87,0.00,,---,0.01,297.00,VWS V14.01,2013-10-07 12:56:00,
2013-10-07 09:00:00,66.9,64.8,29.96,NE,37,0.0,5.0,93,0.01,,---,0.01,39.00,VWS V14.01,2013-10-07 13:00:00,
2013-10-07 09:01:00,70.8,66.4,29.95,NW,320,1.0,1.0,86,0.00,,---,0.01,364.00,VWS V14.01,2013-10-07 13:01:00,
2013-10-07 09:06:00,71.0,66.9,29.94,SSW,196,3.0,7.0,87,0.00,,---,0.01,359.00,VWS V14.01,2013-10-07 13:06:00,
2013-10-07 09:11:00,71.1,66.7,29.94,NNE,14,2.0,7.0,86,0.00,,---,0.01,374.00,VWS V14.01,2013-10-07 13:11:00,
2013-10-07 09:16:00,70.9,66.5,29.94,SSW,204,2.0,10.0,86,0.00,,---,0.01,236.00,VWS V14.01,2013-10-07 13:16:00,
2013-10-07 09:21:00,70.5,66.4,29.94,ESE,107,0.0,10.0,87,0.00,,---,0.01,95.00,VWS V14.01,2013-10-07 13:21:00,
2013-10-07 09:26:00,70.1,66.1,29.93,WNW,300,0.0,10.0,87,0.00,,---,0.01,76.00,VWS V14.01,2013-10-07 13:26:00,
2013-10-07 09:30:00,67.9,65.2,29.95,ESE,111,0.0,9.0,91,0.00,,---,0.01,218.00,VWS V14.01,2013-10-07 13:30:00,
2013-10-07 09:31:00,69.8,66.1,29.93,NNE,27,0.0,1.0,88,0.00,,---,0.01,65.00,VWS V14.01,2013-10-07 13:31:00,
2013-10-07 09:36:00,69.6,66.2,29.93,ESE,109,5.0,5.0,89,0.00,,---,0.01,158.00,VWS V14.01,2013-10-07 13:36:00,
2013-10-07 09:41:00,69.7,66.0,29.93,West,273,2.0,7.0,88,0.00,,---,0.01,107.00,VWS V14.01,2013-10-07 13:41:00,
2013-10-07 09:46:00,70.0,66.3,29.93,WSW,247,0.0,8.0,88,0.00,,---,0.01,102.00,VWS V14.01,2013-10-07 13:46:00,
2013-10-07 09:51:00,70.4,66.7,29.92,SE,134,0.0,8.0,88,0.00,,---,0.01,139.00,VWS V14.01,2013-10-07 13:51:00,
2013-10-07 09:56:00,70.5,66.4,29.92,SE,127,0.0,8.0,87,0.00,,---,0.01,153.00,VWS V14.01,2013-10-07 13:56:00,
2013-10-07 10:00:00,70.7,66.7,29.94,West,261,0.0,6.0,87,0.00,,---,0.01,366.00,VWS V14.01,2013-10-07 14:00:00,
2013-10-07 10:01:00,70.7,66.3,29.92,WNW,301,1.0,1.0,86,0.00,,---,0.01,230.00,VWS V14.01,2013-10-07 14:01:00,
2013-10-07 10:06:00,71.1,66.7,29.92,ESE,115,0.0,4.0,86,0.00,,---,0.01,141.00,VWS V14.01,2013-10-07 14:06:00,
2013-10-07 10:11:00,71.5,67.1,29.91,SW,234,0.0,5.0,86,0.00,,---,0.01,290.00,VWS V14.01,2013-10-07 14:11:00,
2013-10-07 10:16:00,71.7,66.9,29.91,SSE,150,0.0,5.0,85,0.00,,---,0.01,199.00,VWS V14.01,2013-10-07 14:16:00,
2013-10-07 10:21:00,71.9,66.8,29.91,East,89,0.0,5.0,84,0.00,,---,0.01,183.00,VWS V14.01,2013-10-07 14:21:00,
2013-10-07 10:26:00,72.1,67.0,29.90,ESE,111,0.0,6.0,84,0.00,,---,0.01,153.00,VWS V14.01,2013-10-07 14:26:00,
2013-10-07 10:30:00,69.8,66.1,29.93,NNE,27,1.0,10.0,88,0.00,,---,0.01,72.00,VWS V14.01,2013-10-07 14:30:00,
2013-10-07 10:31:00,72.1,66.7,29.90,East,80,0.0,0.0,83,0.00,,---,0.01,167.00,VWS V14.01,2013-10-07 14:31:00,
2013-10-07 10:36:00,72.1,66.7,29.90,SW,223,0.0,5.0,83,0.00,,---,0.01,153.00,VWS V14.01,2013-10-07 14:36:00,
2013-10-07 10:41:00,72.1,66.7,29.90,East,94,3.0,7.0,83,0.00,,---,0.01,125.00,VWS V14.01,2013-10-07 14:41:00,
2013-10-07 10:46:00,71.9,66.8,29.90,South,187,0.0,7.0,84,0.00,,---,0.01,84.00,VWS V14.01,2013-10-07 14:46:00,
2013-10-07 10:51:00,71.8,66.7,29.89,SE,142,0.0,7.0,84,0.00,,---,0.01,123.00,VWS V14.01,2013-10-07 14:51:00,
2013-10-07 10:56:00,71.7,66.6,29.90,WSW,256,1.0,7.0,84,0.00,,---,0.01,118.00,VWS V14.01,2013-10-07 14:56:00,
2013-10-07 11:00:00,70.6,66.2,29.92,WNW,301,0.0,8.0,86,0.00,,---,0.01,230.00,VWS V14.01,2013-10-07 15:00:00,
2013-10-07 11:01:00,71.8,66.7,29.89,West,261,2.0,3.0,84,0.00,,---,0.01,167.00,VWS V14.01,2013-10-07 15:01:00,
2013-10-07 11:06:00,72.0,66.9,29.89,WNW,293,2.0,4.0,84,0.00,,---,0.01,199.00,VWS V14.01,2013-10-07 15:06:00,
2013-10-07 11:11:00,72.2,67.1,29.89,SW,215,0.0,8.0,84,0.00,,---,0.01,294.00,VWS V14.01,2013-10-07 15:11:00,
2013-10-07 11:16:00,72.6,67.2,29.88,SSE,164,0.0,8.0,83,0.00,,---,0.01,220.00,VWS V14.01,2013-10-07 15:16:00,
2013-10-07 11:21:00,72.9,67.4,29.88,ESE,121,4.0,8.0,83,0.00,,---,0.01,278.00,VWS V14.01,2013-10-07 15:21:00,
2013-10-07 11:26:00,73.1,67.3,29.87,NW,313,1.0,8.0,82,0.00,,---,0.01,283.00,VWS V14.01,2013-10-07 15:26:00,
2013-10-07 11:30:00,72.1,66.7,29.90,East,80,0.0,6.0,83,0.00,,---,0.01,186.00,VWS V14.01,2013-10-07 15:30:00,
2013-10-07 11:31:00,73.3,67.1,29.87,SSE,160,5.0,5.0,81,0.00,,---,0.01,345.00,VWS V14.01,2013-10-07 15:31:00,
2013-10-07 11:36:00,73.7,67.5,29.86,East,100,0.0,5.0,81,0.00,,---,0.01,288.00,VWS V14.01,2013-10-07 15:36:00,
2013-10-07 11:41:00,73.9,67.0,29.86,SE,129,1.0,9.0,79,0.00,,---,0.01,267.00,VWS V14.01,2013-10-07 15:41:00,
2013-10-07 11:46:00,74.0,67.1,29.86,NNW,334,3.0,9.0,79,0.00,,---,0.01,306.00,VWS V14.01,2013-10-07 15:46:00,
2013-10-07 11:51:00,74.1,67.2,29.85,North,360,2.0,9.0,79,0.00,,---,0.01,283.00,VWS V14.01,2013-10-07 15:51:00,
2013-10-07 11:56:00,74.0,67.1,29.85,SSE,159,3.0,10.0,79,0.00,,---,0.01,290.00,VWS V14.01,2013-10-07 15:56:00,
2013-10-07 12:00:00,71.7,66.6,29.89,NNE,17,0.0,7.0,84,0.00,,---,0.01,141.00,VWS V14.01,2013-10-07 16:00:00,
2013-10-07 12:01:00,74.0,67.4,29.84,WSW,245,0.0,2.0,80,0.00,,---,0.01,301.00,VWS V14.01,2013-10-07 16:01:00,
2013-10-07 12:06:00,74.1,67.2,29.84,West,264,2.0,7.0,79,0.00,,---,0.01,160.00,VWS V14.01,2013-10-07 16:06:00,
2013-10-07 12:11:00,73.9,67.0,29.83,WNW,290,3.0,11.0,79,0.00,,---,0.01,250.00,VWS V14.01,2013-10-07 16:11:00,
2013-10-07 12:16:00,74.0,67.1,29.83,SE,140,0.0,14.0,79,0.00,,---,0.01,244.00,VWS V14.01,2013-10-07 16:16:00,
2013-10-07 12:20:00,74.2,66.9,29.83,WSW,250,4.0,14.0,78,0.00,,---,0.01,353.00,VWS V14.01,2013-10-07 16:20:00,
2013-10-07 12:25:00,74.5,66.8,29.82,SSE,161,0.0,14.0,77,0.00,,---,0.01,255.00,VWS V14.01,2013-10-07 16:25:00,
2013-10-07 12:30:00,74.6,66.9,29.82,NNW,344,1.0,2.0,77,0.00,,---,0.01,241.00,VWS V14.01,2013-10-07 16:30:00,
2013-10-07 12:35:00,74.8,67.1,29.81,NNW,331,0.0,5.0,77,0.00,,---,0.01,227.00,VWS V14.01,2013-10-07 16:35:00,
2013-10-07 12:40:00,74.7,67.0,29.81,North,9,4.0,8.0,77,0.00,,---,0.01,200.00,VWS V14.01,2013-10-07 16:40:00,
2013-10-07 12:45:00,74.5,67.6,29.81,East,88,0.0,8.0,79,0.00,,---,0.01,186.00,VWS V14.01,2013-10-07 16:45:00,
2013-10-07 13:00:00,74.0,67.1,29.85,ESE,108,2.0,11.0,79,0.00,,---,0.01,301.00,VWS V14.01,2013-10-07 17:00:00,
2013-10-07 13:30:00,70.7,67.0,29.77,NNW,347,1.0,3.0,88,0.15,,---,0.16,104.00,VWS V14.01,2013-10-07 17:30:00,
2013-10-07 13:35:00,70.8,67.1,29.77,NNE,15,2.0,8.0,88,0.15,,---,0.16,90.00,VWS V14.01,2013-10-07 17:35:00,
2013-10-07 13:40:00,70.8,67.1,29.77,SW,229,2.0,8.0,88,0.15,,---,0.16,65.00,VWS V14.01,2013-10-07 17:40:00,
2013-10-07 13:45:00,70.9,67.5,29.77,WSW,257,5.0,11.0,89,0.15,,---,0.16,100.00,VWS V14.01,2013-10-07 17:45:00,
2013-10-07 13:50:00,70.7,67.6,29.76,WSW,244,3.0,11.0,90,0.15,,---,0.16,125.00,VWS V14.01,2013-10-07 17:50:00,
2013-10-07 13:55:00,70.5,67.8,29.76,SSE,148,2.0,11.0,91,0.15,,---,0.16,90.00,VWS V14.01,2013-10-07 17:55:00,
2013-10-07 14:00:00,70.3,67.6,29.76,West,276,0.0,3.0,91,0.02,,---,0.16,95.00,VWS V14.01,2013-10-07 18:00:00,
2013-10-07 14:06:00,70.2,67.8,29.75,SW,236,0.0,11.0,92,0.03,,---,0.17,144.00,VWS V14.01,2013-10-07 18:06:00,
2013-10-07 14:11:00,70.1,68.0,29.75,NE,44,0.0,11.0,93,0.04,,---,0.18,130.00,VWS V14.01,2013-10-07 18:11:00,
2013-10-07 14:16:00,69.9,67.8,29.74,WSW,250,4.0,11.0,93,0.04,,---,0.18,120.00,VWS V14.01,2013-10-07 18:16:00,
2013-10-07 14:21:00,69.8,67.7,29.75,SSE,156,6.0,11.0,93,0.05,,---,0.19,123.00,VWS V14.01,2013-10-07 18:21:00,
2013-10-07 14:26:00,69.8,67.7,29.75,SSE,150,2.0,11.0,93,0.05,,---,0.19,79.00,VWS V14.01,2013-10-07 18:26:00,
2013-10-07 14:30:00,70.7,67.0,29.77,NNE,26,3.0,9.0,88,0.15,,---,0.16,104.00,VWS V14.01,2013-10-07 18:30:00,
2013-10-07 14:31:00,69.9,67.8,29.75,ESE,119,2.0,4.0,93,0.03,,---,0.19,197.00,VWS V14.01,2013-10-07 18:31:00,
2013-10-07 14:37:00,70.2,68.1,29.75,ESE,103,5.0,8.0,93,0.03,,---,0.19,130.00,VWS V14.01,2013-10-07 18:37:00,
2013-10-07 14:42:00,70.4,68.0,29.74,SE,136,4.0,8.0,92,0.03,,---,0.19,188.00,VWS V14.01,2013-10-07 18:42:00,
2013-10-07 14:47:00,70.7,68.3,29.74,WSW,252,0.0,8.0,92,0.03,,---,0.19,158.00,VWS V14.01,2013-10-07 18:47:00,
2013-10-07 14:52:00,71.0,68.2,29.73,SW,235,5.0,9.0,91,0.03,,---,0.19,186.00,VWS V14.01,2013-10-07 18:52:00,
2013-10-07 14:57:00,71.1,68.0,29.74,SE,142,7.0,11.0,90,0.03,,---,0.19,123.00,VWS V14.01,2013-10-07 18:57:00,
2013-10-07 15:00:00,70.3,67.6,29.76,East,86,3.0,11.0,91,0.15,,---,0.16,97.00,VWS V14.01,2013-10-07 19:00:00,
2013-10-07 15:02:00,71.4,68.0,29.74,SW,232,5.0,14.0,89,0.03,,---,0.19,174.00,VWS V14.01,2013-10-07 19:02:00,
2013-10-07 15:07:00,71.7,68.3,29.74,SW,219,10.0,14.0,89,0.03,,---,0.19,134.00,VWS V14.01,2013-10-07 19:07:00,
2013-10-07 15:12:00,72.0,68.3,29.73,West,264,2.0,14.0,88,0.03,,---,0.19,81.00,VWS V14.01,2013-10-07 19:12:00,
2013-10-07 15:17:00,72.1,68.0,29.72,WSW,242,5.0,14.0,87,0.03,,---,0.19,54.00,VWS V14.01,2013-10-07 19:17:00,
2013-10-07 15:22:00,72.3,67.9,29.73,South,189,9.0,16.0,86,0.03,,---,0.19,47.00,VWS V14.01,2013-10-07 19:22:00,
2013-10-07 15:27:00,72.4,68.0,29.72,WSW,240,7.0,16.0,86,0.03,,---,0.19,46.00,VWS V14.01,2013-10-07 19:27:00,
2013-10-07 15:30:00,69.9,67.8,29.75,NNW,336,0.0,12.0,93,0.05,,---,0.19,135.00,VWS V14.01,2013-10-07 19:30:00,
2013-10-07 15:32:00,72.4,68.0,29.72,ESE,123,4.0,13.0,86,0.00,,---,0.19,40.00,VWS V14.01,2013-10-07 19:32:00,
2013-10-07 15:37:00,72.1,67.3,29.72,WSW,250,13.0,24.0,85,0.04,,---,0.23,5.00,VWS V14.01,2013-10-07 19:37:00,
2013-10-07 15:42:00,67.7,64.0,29.81,SSW,211,3.0,24.0,88,0.42,,---,0.61,5.00,VWS V14.01,2013-10-07 19:42:00,
2013-10-07 15:47:00,65.7,63.0,29.81,SW,230,0.0,24.0,91,0.54,,---,0.73,7.00,VWS V14.01,2013-10-07 19:47:00,
2013-10-07 15:52:00,64.5,62.4,29.81,SW,223,1.0,24.0,93,0.66,,---,0.85,12.00,VWS V14.01,2013-10-07 19:52:00,
2013-10-07 15:57:00,64.0,62.5,29.81,ENE,71,0.0,24.0,95,0.70,,---,0.89,12.00,VWS V14.01,2013-10-07 19:57:00,
2013-10-07 16:00:00,71.2,68.1,29.74,West,277,1.0,14.0,90,0.03,,---,0.19,165.00,VWS V14.01,2013-10-07 20:00:00,
2013-10-07 16:02:00,63.8,62.3,29.81,WSW,258,3.0,3.0,95,0.74,,---,0.93,12.00,VWS V14.01,2013-10-07 20:02:00,
2013-10-07 16:07:00,63.6,62.2,29.81,WSW,255,0.0,5.0,95,0.78,,---,0.97,9.00,VWS V14.01,2013-10-07 20:07:00,
2013-10-07 16:12:00,63.4,62.2,29.81,WSW,255,0.0,5.0,96,0.81,,---,1.00,9.00,VWS V14.01,2013-10-07 20:12:00,
2013-10-07 16:17:00,63.2,62.0,29.81,SW,224,0.0,5.0,96,0.84,,---,1.03,0.00,VWS V14.01,2013-10-07 20:17:00,
2013-10-07 16:22:00,63.1,61.9,29.80,WNW,303,2.0,5.0,96,0.85,,---,1.04,0.00,VWS V14.01,2013-10-07 20:22:00,
2013-10-07 16:27:00,63.0,61.8,29.80,West,262,0.0,5.0,96,0.86,,---,1.05,11.00,VWS V14.01,2013-10-07 20:27:00,
2013-10-07 16:30:00,72.5,68.1,29.72,WSW,252,0.0,16.0,86,0.03,,---,0.19,53.00,VWS V14.01,2013-10-07 20:30:00,
2013-10-07 16:32:00,63.0,61.8,29.79,WSW,257,0.0,2.0,96,0.87,,---,1.06,39.00,VWS V14.01,2013-10-07 20:32:00,
2013-10-07 16:37:00,63.0,61.8,29.79,WNW,283,3.0,3.0,96,0.87,,---,1.06,54.00,VWS V14.01,2013-10-07 20:37:00,
2013-10-07 16:42:00,63.1,62.2,29.79,WSW,245,0.0,5.0,97,0.89,,---,1.08,33.00,VWS V14.01,2013-10-07 20:42:00,
2013-10-07 16:47:00,63.2,62.3,29.80,SSW,195,0.0,5.0,97,0.89,,---,1.08,26.00,VWS V14.01,2013-10-07 20:47:00,
2013-10-07 16:52:00,63.2,62.3,29.80,South,191,0.0,5.0,97,0.90,,---,1.09,11.00,VWS V14.01,2013-10-07 20:52:00,
2013-10-07 16:57:00,63.2,62.3,29.80,SW,230,0.0,5.0,97,0.90,,---,1.09,9.00,VWS V14.01,2013-10-07 20:57:00,
2013-10-07 17:00:00,63.9,62.4,29.81,SSW,211,0.0,24.0,95,0.73,,---,0.92,14.00,VWS V14.01,2013-10-07 21:00:00,
2013-10-07 17:02:00,63.2,62.3,29.81,WSW,240,0.0,0.0,97,0.17,,---,1.09,12.00,VWS V14.01,2013-10-07 21:02:00,
2013-10-07 17:07:00,63.3,62.4,29.81,WSW,256,1.0,2.0,97,0.17,,---,1.09,16.00,VWS V14.01,2013-10-07 21:07:00,
2013-10-07 17:12:00,63.3,62.4,29.81,South,191,0.0,3.0,97,0.17,,---,1.09,23.00,VWS V14.01,2013-10-07 21:12:00,
2013-10-07 17:17:00,63.3,62.4,29.81,South,191,0.0,3.0,97,0.17,,---,1.09,32.00,VWS V14.01,2013-10-07 21:17:00,
2013-10-07 17:22:00,63.4,62.5,29.81,WNW,300,0.0,3.0,97,0.17,,---,1.09,33.00,VWS V14.01,2013-10-07 21:22:00,
2013-10-07 17:27:00,63.4,62.5,29.82,WNW,300,0.0,3.0,97,0.17,,---,1.09,7.00,VWS V14.01,2013-10-07 21:27:00,
2013-10-07 17:30:00,63.0,61.8,29.79,WSW,257,0.0,5.0,96,0.87,,---,1.06,21.00,VWS V14.01,2013-10-07 21:30:00,
2013-10-07 17:32:00,63.4,62.5,29.82,WSW,254,0.0,4.0,97,0.03,,---,1.09,0.00,VWS V14.01,2013-10-07 21:32:00,
2013-10-07 17:37:00,63.4,62.5,29.82,WSW,254,0.0,4.0,97,0.03,,---,1.09,9.00,VWS V14.01,2013-10-07 21:37:00,
2013-10-07 17:42:00,63.4,62.5,29.82,WSW,255,1.0,4.0,97,0.03,,---,1.09,5.00,VWS V14.01,2013-10-07 21:42:00,
2013-10-07 17:47:00,63.4,62.5,29.82,WSW,255,0.0,4.0,97,0.04,,---,1.10,7.00,VWS V14.01,2013-10-07 21:47:00,
2013-10-07 17:52:00,63.4,62.5,29.82,WSW,255,0.0,4.0,97,0.04,,---,1.10,5.00,VWS V14.01,2013-10-07 21:52:00,
2013-10-07 17:57:00,63.4,62.5,29.83,WSW,255,0.0,4.0,97,0.04,,---,1.10,0.00,VWS V14.01,2013-10-07 21:57:00,
2013-10-07 18:00:00,63.2,62.3,29.81,SW,230,0.0,5.0,97,0.90,,---,1.09,12.00,VWS V14.01,2013-10-07 22:00:00,
2013-10-07 18:02:00,63.4,62.5,29.84,WSW,255,1.0,2.0,97,0.01,,---,1.10,0.00,VWS V14.01,2013-10-07 22:02:00,
2013-10-07 18:07:00,63.4,62.5,29.84,West,276,1.0,3.0,97,0.01,,---,1.10,0.00,VWS V14.01,2013-10-07 22:07:00,
2013-10-07 18:12:00,63.4,62.5,29.84,West,276,0.0,3.0,97,0.01,,---,1.10,0.00,VWS V14.01,2013-10-07 22:12:00,
2013-10-07 18:17:00,63.4,62.5,29.85,West,276,2.0,3.0,97,0.01,,---,1.10,0.00,VWS V14.01,2013-10-07 22:17:00,
2013-10-07 18:22:00,63.0,62.1,29.85,NW,319,0.0,8.0,97,0.01,,---,1.10,0.00,VWS V14.01,2013-10-07 22:22:00,
2013-10-07 18:27:00,61.6,60.2,29.85,WSW,252,0.0,8.0,95,0.01,,---,1.10,0.00,VWS V14.01,2013-10-07 22:27:00,
2013-10-07 18:30:00,63.4,62.5,29.83,WNW,300,0.0,3.0,97,0.17,,---,1.09,0.00,VWS V14.01,2013-10-07 22:30:00,
2013-10-07 18:32:00,60.4,59.0,29.86,SW,229,4.0,4.0,95,0.02,,---,1.11,0.00,VWS V14.01,2013-10-07 22:32:00,
2013-10-07 18:37:00,59.0,57.3,29.88,West,269,0.0,5.0,94,0.03,,---,1.12,0.00,VWS V14.01,2013-10-07 22:37:00,
2013-10-07 18:42:00,58.1,56.4,29.89,West,275,1.0,6.0,94,0.03,,---,1.12,0.00,VWS V14.01,2013-10-07 22:42:00,
2013-10-07 18:47:00,57.6,56.2,29.89,NW,313,2.0,6.0,95,0.04,,---,1.13,0.00,VWS V14.01,2013-10-07 22:47:00,
2013-10-07 18:52:00,57.3,55.9,29.90,NW,313,0.0,6.0,95,0.05,,---,1.14,0.00,VWS V14.01,2013-10-07 22:52:00,
2013-10-07 18:57:00,57.1,56.0,29.90,NW,313,0.0,6.0,96,0.05,,---,1.14,0.00,VWS V14.01,2013-10-07 22:57:00,
2013-10-07 19:00:00,63.4,62.5,29.84,WSW,255,0.0,4.0,97,0.04,,---,1.10,0.00,VWS V14.01,2013-10-07 23:00:00,
2013-10-07 19:02:00,57.0,55.9,29.90,NW,313,2.0,2.0,96,0.04,,---,1.14,0.00,VWS V14.01,2013-10-07 23:02:00,
2013-10-07 19:07:00,56.9,55.8,29.90,NW,313,0.0,3.0,96,0.04,,---,1.14,0.00,VWS V14.01,2013-10-07 23:07:00,
2013-10-07 19:12:00,56.8,55.7,29.91,NW,313,0.0,3.0,96,0.04,,---,1.14,0.00,VWS V14.01,2013-10-07 23:12:00,
2013-10-07 19:17:00,56.7,55.6,29.91,NW,313,0.0,3.0,96,0.04,,---,1.14,0.00,VWS V14.01,2013-10-07 23:17:00,
2013-10-07 19:30:00,56.7,55.9,29.91,NW,313,0.0,3.0,97,0.04,,---,1.14,0.00,VWS V14.01,2013-10-07 23:30:00,
2013-10-07 19:35:00,56.6,55.8,29.91,NW,313,0.0,0.0,97,0.03,,---,1.14,0.00,VWS V14.01,2013-10-07 23:35:00,
2013-10-07 19:40:00,56.6,55.8,29.91,NW,313,0.0,0.0,97,0.04,,---,1.15,0.00,VWS V14.01,2013-10-07 23:40:00,
2013-10-07 19:45:00,56.5,55.7,29.91,NW,313,0.0,0.0,97,0.04,,---,1.15,0.00,VWS V14.01,2013-10-07 23:45:00,
2013-10-07 19:50:00,56.5,55.7,29.91,NW,313,0.0,0.0,97,0.04,,---,1.15,0.00,VWS V14.01,2013-10-07 23:50:00,
2013-10-07 19:55:00,56.5,55.7,29.91,NW,313,0.0,0.0,97,0.04,,---,1.15,0.00,VWS V14.01,2013-10-07 23:55:00,
2013-10-07 20:00:00,56.6,55.8,29.92,NW,313,0.0,0.0,97,0.04,,---,1.15,0.00,VWS V14.01,2013-10-08 00:00:00,
2013-10-07 20:05:00,56.6,55.8,29.92,NW,313,0.0,0.0,97,0.01,,---,1.15,0.00,VWS V14.01,2013-10-08 00:05:00,
2013-10-07 20:10:00,56.5,55.7,29.92,NW,313,0.0,0.0,97,0.01,,---,1.15,0.00,VWS V14.01,2013-10-08 00:10:00,
2013-10-07 20:15:00,56.4,55.6,29.92,NW,313,0.0,0.0,97,0.01,,---,1.15,0.00,VWS V14.01,2013-10-08 00:15:00,
2013-10-07 20:20:00,56.4,55.6,29.93,NW,313,0.0,0.0,97,0.01,,---,1.15,0.00,VWS V14.01,2013-10-08 00:20:00,
2013-10-07 20:25:00,56.4,55.6,29.92,NW,313,0.0,0.0,97,0.01,,---,1.15,0.00,VWS V14.01,2013-10-08 00:25:00,
2013-10-07 20:30:00,56.5,55.7,29.92,NW,313,0.0,0.0,97,0.01,,---,1.15,0.00,VWS V14.01,2013-10-08 00:30:00,
2013-10-07 20:35:00,56.4,55.6,29.92,NW,313,0.0,0.0,97,0.01,,---,1.15,0.00,VWS V14.01,2013-10-08 00:35:00,
2013-10-07 20:40:00,56.4,55.6,29.93,NW,313,0.0,0.0,97,0.01,,---,1.15,0.00,VWS V14.01,2013-10-08 00:40:00,
2013-10-07 20:45:00,56.4,55.8,29.93,NW,313,0.0,0.0,98,0.01,,---,1.15,0.00,VWS V14.01,2013-10-08 00:45:00,
2013-10-07 20:50:00,56.4,55.8,29.93,NW,313,0.0,0.0,98,0.01,,---,1.15,0.00,VWS V14.01,2013-10-08 00:50:00,
2013-10-07 20:55:00,56.4,55.6,29.93,NW,313,0.0,0.0,97,0.01,,---,1.15,0.00,VWS V14.01,2013-10-08 00:55:00,
2013-10-07 21:00:00,56.3,55.5,29.93,NW,313,0.0,0.0,97,0.01,,---,1.15,0.00,VWS V14.01,2013-10-08 01:00:00,
2013-10-07 21:05:00,56.4,55.6,29.93,NW,313,0.0,0.0,97,0.00,,---,1.15,0.00,VWS V14.01,2013-10-08 01:05:00,
2013-10-07 21:10:00,56.4,55.6,29.93,NW,313,0.0,0.0,97,0.00,,---,1.15,0.00,VWS V14.01,2013-10-08 01:10:00,
2013-10-07 21:15:00,56.3,55.5,29.93,NW,313,0.0,0.0,97,0.00,,---,1.15,0.00,VWS V14.01,2013-10-08 01:15:00,
2013-10-07 21:20:00,56.3,55.5,29.93,NW,313,0.0,0.0,97,0.00,,---,1.15,0.00,VWS V14.01,2013-10-08 01:20:00,
2013-10-07 21:25:00,56.2,55.4,29.93,NW,313,0.0,0.0,97,0.00,,---,1.15,0.00,VWS V14.01,2013-10-08 01:25:00,
2013-10-07 21:30:00,56.1,55.5,29.93,NW,313,0.0,0.0,98,0.00,,---,1.15,0.00,VWS V14.01,2013-10-08 01:30:00,
2013-10-07 21:35:00,55.9,55.3,29.93,NW,313,0.0,0.0,98,0.00,,---,1.15,0.00,VWS V14.01,2013-10-08 01:35:00,
2013-10-07 21:40:00,55.7,54.9,29.93,NW,313,0.0,0.0,97,0.00,,---,1.15,0.00,VWS V14.01,2013-10-08 01:40:00,
2013-10-07 21:45:00,55.5,54.7,29.94,NW,313,0.0,0.0,97,0.00,,---,1.15,0.00,VWS V14.01,2013-10-08 01:45:00,
2013-10-07 21:50:00,55.2,54.4,29.94,NW,313,0.0,0.0,97,0.00,,---,1.15,0.00,VWS V14.01,2013-10-08 01:50:00,
2013-10-07 21:55:00,54.9,54.1,29.94,NW,313,0.0,0.0,97,0.00,,---,1.15,0.00,VWS V14.01,2013-10-08 01:55:00,
2013-10-07 22:00:00,54.7,53.9,29.95,NW,313,0.0,0.0,97,0.00,,---,1.15,0.00,VWS V14.01,2013-10-08 02:00:00,
2013-10-07 22:05:00,54.4,53.6,29.95,NW,313,0.0,0.0,97,0.00,,---,1.15,0.00,VWS V14.01,2013-10-08 02:05:00,
2013-10-07 22:10:00,54.2,53.4,29.96,NW,313,0.0,0.0,97,0.00,,---,1.15,0.00,VWS V14.01,2013-10-08 02:10:00,
2013-10-07 22:15:00,54.1,53.3,29.96,NW,313,0.0,0.0,97,0.00,,---,1.15,0.00,VWS V14.01,2013-10-08 02:15:00,
2013-10-07 22:20:00,54.0,53.2,29.96,NW,313,0.0,0.0,97,0.00,,---,1.15,0.00,VWS V14.01,2013-10-08 02:20:00,
2013-10-07 22:25:00,53.8,53.0,29.96,NW,313,0.0,0.0,97,0.00,,---,1.15,0.00,VWS V14.01,2013-10-08 02:25:00,
2013-10-07 22:30:00,53.7,52.9,29.97,NW,313,0.0,0.0,97,0.00,,---,1.15,0.00,VWS V14.01,2013-10-08 02:30:00,
2013-10-07 22:35:00,53.5,52.7,29.97,NW,313,0.0,0.0,97,0.00,,---,1.15,0.00,VWS V14.01,2013-10-08 02:35:00,
2013-10-07 22:40:00,53.3,52.5,29.97,NW,313,0.0,1.0,97,0.00,,---,1.15,0.00,VWS V14.01,2013-10-08 02:40:00,
2013-10-07 22:45:00,53.1,52.3,29.97,NW,313,0.0,1.0,97,0.00,,---,1.15,0.00,VWS V14.01,2013-10-08 02:45:00,
2013-10-07 22:50:00,53.0,52.5,29.97,NW,313,0.0,1.0,98,0.00,,---,1.15,0.00,VWS V14.01,2013-10-08 02:50:00,
2013-10-07 22:55:00,52.9,52.3,29.97,NW,313,0.0,1.0,98,0.00,,---,1.15,0.00,VWS V14.01,2013-10-08 02:55:00,
2013-10-07 23:00:00,52.7,52.2,29.97,NW,313,0.0,1.0,98,0.00,,---,1.15,0.00,VWS V14.01,2013-10-08 03:00:00,
2013-10-07 23:05:00,52.6,51.8,29.97,NW,313,0.0,0.0,97,0.00,,---,1.15,0.00,VWS V14.01,2013-10-08 03:05:00,
2013-10-07 23:10:00,52.5,51.7,29.97,NW,313,0.0,0.0,97,0.00,,---,1.15,0.00,VWS V14.01,2013-10-08 03:10:00,
2013-10-07 23:15:00,52.4,51.8,29.97,NW,313,0.0,0.0,98,0.00,,---,1.15,0.00,VWS V14.01,2013-10-08 03:15:00,
2013-10-07 23:20:00,52.2,51.7,29.97,NW,313,0.0,0.0,98,0.00,,---,1.15,0.00,VWS V14.01,2013-10-08 03:20:00,
2013-10-07 23:25:00,52.1,51.5,29.98,NW,313,0.0,0.0,98,0.00,,---,1.15,0.00,VWS V14.01,2013-10-08 03:25:00,
2013-10-07 23:30:00,52.0,51.2,29.98,NW,313,0.0,0.0,97,0.00,,---,1.15,0.00,VWS V14.01,2013-10-08 03:30:00,
2013-10-07 23:35:00,51.9,51.4,29.98,NW,313,0.0,0.0,98,0.00,,---,1.15,0.00,VWS V14.01,2013-10-08 03:35:00,
2013-10-07 23:40:00,51.9,51.4,29.98,NW,313,0.0,0.0,98,0.00,,---,1.15,0.00,VWS V14.01,2013-10-08 03:40:00,
2013-10-07 23:45:00,51.8,51.3,29.98,NW,313,0.0,0.0,98,0.00,,---,1.15,0.00,VWS V14.01,2013-10-08 03:45:00,
2013-10-07 23:50:00,51.7,51.2,29.98,NW,313,0.0,0.0,98,0.00,,---,1.15,0.00,VWS V14.01,2013-10-08 03:50:00,
2013-10-07 23:55:00,51.6,51.1,29.99,NW,313,0.0,0.0,98,0.00,,---,1.15,0.00,VWS V14.01,2013-10-08 03:55:00,